Time;durP1;ratioP1;P1;durP2;ratioP2;P2;SDS_P1;SDS_P2;PMS_P1;PMS_P2;Temp;Humidity;BMP_temperature;BMP_pressure;BME280_temperature;BME280_humidity;BME280_pressure;Samples;Min_cycle;Max_cycle;Signal;HPM_P1;HPM_P2
2021/10/17 00:00:58;;;;;;;18.07;10.37;;;11.70;68.30;;;;;;5070674;28;20189;-87
2021/10/17 00:03:24;;;;;;;18.60;11.50;;;11.70;68.00;;;;;;5070767;28;20471;-86
2021/10/17 00:05:50;;;;;;;23.05;12.18;;;11.40;68.10;;;;;;5069515;28;20466;-86
2021/10/17 00:08:16;;;;;;;17.67;11.40;;;11.40;68.50;;;;;;5062898;28;20233;-85
2021/10/17 00:10:42;;;;;;;19.37;10.70;;;11.50;68.80;;;;;;5046616;28;20181;-85
2021/10/17 00:13:08;;;;;;;21.03;10.67;;;11.70;68.60;;;;;;5078433;28;20184;-85
2021/10/17 00:15:36;;;;;;;20.25;11.45;;;11.80;68.20;;;;;;5070000;28;20240;-85
2021/10/17 00:18:04;;;;;;;18.60;12.13;;;11.80;68.20;;;;;;5064542;28;20189;-85
2021/10/17 00:20:30;;;;;;;18.10;11.10;;;11.70;68.30;;;;;;5063373;28;20180;-85
2021/10/17 00:22:57;;;;;;;23.27;12.10;;;11.80;68.30;;;;;;5065746;28;20181;-86
2021/10/17 00:25:23;;;;;;;17.15;11.63;;;11.80;68.20;;;;;;5067782;28;20177;-85
2021/10/17 00:27:50;;;;;;;20.88;11.77;;;11.70;68.10;;;;;;5062142;28;20252;-85
2021/10/17 00:30:17;;;;;;;20.55;12.10;;;11.50;68.40;;;;;;5060113;28;20251;-85
2021/10/17 00:32:43;;;;;;;18.70;11.00;;;11.40;68.70;;;;;;5058490;28;20187;-85
2021/10/17 00:35:11;;;;;;;17.75;11.23;;;11.60;68.60;;;;;;5056289;28;20193;-85
2021/10/17 00:37:37;;;;;;;23.10;12.13;;;11.80;68.10;;;;;;5058100;28;20189;-85
2021/10/17 00:40:08;;;;;;;18.33;11.57;;;11.80;67.80;;;;;;5070488;28;20177;-85
2021/10/17 00:42:34;;;;;;;23.33;13.18;;;11.80;67.80;;;;;;5069296;28;20180;-85
2021/10/17 00:45:03;;;;;;;19.58;12.85;;;11.80;67.70;;;;;;5060902;28;20275;-85
2021/10/17 00:47:29;;;;;;;20.65;11.15;;;11.70;67.80;;;;;;5054599;28;20220;-86
2021/10/17 00:49:55;;;;;;;14.18;11.75;;;11.80;67.80;;;;;;5054463;28;20180;-85
2021/10/17 00:52:21;;;;;;;17.37;11.90;;;11.90;67.80;;;;;;5054861;28;20181;-85
2021/10/17 00:54:47;;;;;;;25.73;12.30;;;11.90;67.60;;;;;;5055124;28;20193;-85
2021/10/17 00:57:14;;;;;;;23.23;11.07;;;12.00;67.30;;;;;;5054492;28;20231;-85
2021/10/17 00:59:40;;;;;;;20.08;12.07;;;11.90;67.30;;;;;;5053693;28;20181;-85
2021/10/17 01:02:06;;;;;;;17.07;12.47;;;11.80;67.20;;;;;;5053682;28;20189;-85
2021/10/17 01:04:36;;;;;;;19.20;13.40;;;11.90;67.30;;;;;;5051370;28;20216;-85
2021/10/17 01:07:02;;;;;;;18.80;12.00;;;11.90;67.00;;;;;;5064130;28;20239;-86
2021/10/17 01:09:27;;;;;;;23.55;11.77;;;11.80;67.10;;;;;;5051039;28;20186;-85
2021/10/17 01:11:53;;;;;;;16.10;12.20;;;11.70;67.30;;;;;;5053364;28;20649;-86
2021/10/17 01:14:21;;;;;;;20.03;10.93;;;11.80;67.40;;;;;;5053808;28;20193;-86
2021/10/17 01:16:49;;;;;;;16.45;10.20;;;11.90;67.10;;;;;;5056083;28;20691;-86
2021/10/17 01:19:15;;;;;;;17.30;9.57;;;11.80;66.80;;;;;;5070988;28;20272;-85
2021/10/17 01:21:43;;;;;;;15.25;10.13;;;11.70;67.00;;;;;;5053190;28;20641;-85
2021/10/17 01:24:10;;;;;;;17.85;11.15;;;11.70;67.30;;;;;;5076924;28;20228;-85
2021/10/17 01:26:36;;;;;;;25.00;12.10;;;11.80;67.50;;;;;;5050986;28;20177;-84
2021/10/17 01:29:03;;;;;;;17.35;10.57;;;11.80;67.60;;;;;;5039721;28;20214;-85
2021/10/17 01:31:53;;;;;;;20.05;12.00;;;11.80;67.50;;;;;;5045888;28;20242;-85
2021/10/17 01:34:20;;;;;;;22.50;11.10;;;11.90;67.50;;;;;;5031557;28;20209;-85
2021/10/17 01:36:46;;;;;;;17.95;10.55;;;11.80;67.40;;;;;;5050384;28;20173;-85
2021/10/17 01:39:14;;;;;;;17.27;9.80;;;11.90;67.50;;;;;;5063725;28;20643;-85
2021/10/17 01:41:41;;;;;;;18.98;11.70;;;11.80;67.50;;;;;;5036824;28;20216;-85
2021/10/17 01:44:10;;;;;;;19.20;10.10;;;11.80;67.60;;;;;;5052656;28;20208;-85
2021/10/17 01:46:36;;;;;;;19.48;10.68;;;11.80;67.60;;;;;;5033294;28;20185;-85
2021/10/17 01:49:07;;;;;;;15.90;10.20;;;11.90;67.60;;;;;;5034447;28;20259;-85
2021/10/17 01:51:33;;;;;;;17.58;10.30;;;11.90;67.50;;;;;;5058193;28;20227;-85
2021/10/17 01:54:00;;;;;;;16.02;10.25;;;12.00;67.10;;;;;;5044615;28;20201;-86
2021/10/17 01:56:26;;;;;;;20.60;10.70;;;11.90;67.10;;;;;;5053894;28;20191;-86
2021/10/17 01:58:51;;;;;;;17.50;11.20;;;11.80;67.40;;;;;;5034342;28;20190;-85
2021/10/17 02:01:17;;;;;;;20.83;10.97;;;11.70;67.80;;;;;;5050773;28;20198;-85
2021/10/17 02:03:43;;;;;;;13.90;10.10;;;11.80;67.80;;;;;;5034076;28;20202;-85
2021/10/17 02:06:09;;;;;;;14.87;10.07;;;11.80;67.70;;;;;;5016667;28;20279;-85
2021/10/17 02:08:34;;;;;;;16.43;10.30;;;11.80;68.40;;;;;;5033082;28;20204;-85
2021/10/17 02:11:00;;;;;;;20.93;10.10;;;11.90;67.80;;;;;;5017473;28;20424;-85
2021/10/17 02:13:27;;;;;;;14.10;9.60;;;11.80;67.80;;;;;;5023767;28;20189;-85
2021/10/17 02:15:52;;;;;;;19.58;10.02;;;11.90;67.80;;;;;;5036502;28;20478;-85
2021/10/17 02:18:18;;;;;;;21.80;10.60;;;11.90;67.80;;;;;;5033268;28;20272;-85
2021/10/17 02:20:44;;;;;;;14.10;9.57;;;11.80;67.70;;;;;;5024259;28;20181;-85
2021/10/17 02:23:09;;;;;;;15.43;10.20;;;11.90;67.60;;;;;;5036062;28;20695;-85
2021/10/17 02:25:35;;;;;;;15.17;8.77;;;11.90;67.60;;;;;;5030543;28;20181;-85
2021/10/17 02:28:01;;;;;;;17.17;10.00;;;11.80;67.50;;;;;;5039024;28;20452;-85
2021/10/17 02:30:27;;;;;;;16.10;10.25;;;11.70;67.60;;;;;;5057210;28;20180;-86
2021/10/17 02:32:53;;;;;;;13.43;8.43;;;11.70;67.90;;;;;;5040452;28;20178;-87
2021/10/17 02:35:19;;;;;;;17.90;10.43;;;11.80;67.80;;;;;;5024302;28;20173;-85
2021/10/17 02:37:46;;;;;;;15.98;10.32;;;11.70;67.70;;;;;;5039742;28;20188;-85
2021/10/17 02:40:12;;;;;;;14.45;9.32;;;11.70;67.80;;;;;;5039904;28;20181;-85
2021/10/17 02:42:37;;;;;;;15.97;8.80;;;11.80;67.90;;;;;;5039428;28;20243;-85
2021/10/17 02:45:05;;;;;;;16.37;8.37;;;11.80;67.80;;;;;;5054927;28;20478;-85
2021/10/17 02:47:31;;;;;;;19.95;9.13;;;11.80;67.70;;;;;;5028543;28;20201;-85
2021/10/17 02:49:56;;;;;;;18.87;9.23;;;11.90;67.50;;;;;;5030462;28;20543;-85
2021/10/17 02:52:22;;;;;;;12.50;9.30;;;12.00;67.30;;;;;;5031388;28;20427;-85
2021/10/17 02:54:48;;;;;;;19.80;9.50;;;12.10;67.00;;;;;;5023375;28;20436;-85
2021/10/17 02:57:14;;;;;;;12.87;9.40;;;11.90;67.00;;;;;;5031237;28;20173;-85
2021/10/17 02:59:39;;;;;;;16.67;9.70;;;11.70;67.20;;;;;;5036475;28;20174;-86
2021/10/17 03:02:05;;;;;;;19.67;10.27;;;11.70;67.50;;;;;;5018742;28;20182;-86
2021/10/17 03:04:31;;;;;;;21.53;10.70;;;11.70;67.60;;;;;;5036161;28;20224;-86
2021/10/17 03:06:57;;;;;;;21.47;9.50;;;11.80;67.50;;;;;;5057896;28;20170;-86
2021/10/17 03:09:23;;;;;;;19.27;10.38;;;11.90;67.60;;;;;;5058350;28;20834;-85
2021/10/17 03:11:49;;;;;;;13.57;10.17;;;11.90;67.40;;;;;;5055192;28;20182;-85
2021/10/17 03:14:14;;;;;;;21.15;10.90;;;12.00;67.30;;;;;;5055440;28;20649;-85
2021/10/17 03:16:42;;;;;;;20.10;10.33;;;12.00;67.20;;;;;;5057929;28;20204;-85
2021/10/17 03:19:11;;;;;;;18.48;9.73;;;12.00;67.20;;;;;;5050193;28;20417;-86
2021/10/17 03:21:37;;;;;;;12.15;8.95;;;12.20;67.10;;;;;;5040950;28;20273;-86
2021/10/17 03:24:03;;;;;;;18.63;9.20;;;12.20;66.90;;;;;;5053496;28;20202;-86
2021/10/17 03:26:29;;;;;;;17.30;9.30;;;12.10;67.00;;;;;;5059624;28;20200;-86
2021/10/17 03:28:54;;;;;;;11.80;8.90;;;12.10;67.20;;;;;;5060914;28;20280;-86
2021/10/17 03:31:20;;;;;;;13.57;9.00;;;12.00;67.20;;;;;;5058316;28;20263;-85
2021/10/17 03:33:46;;;;;;;13.23;9.00;;;12.10;67.20;;;;;;5053793;28;20229;-85
2021/10/17 03:36:11;;;;;;;21.73;9.93;;;12.10;67.20;;;;;;5037148;28;20209;-85
2021/10/17 03:38:37;;;;;;;13.73;8.37;;;12.10;67.10;;;;;;5039892;28;20263;-86
2021/10/17 03:41:03;;;;;;;17.57;8.70;;;12.00;67.00;;;;;;5055941;28;20184;-85
2021/10/17 03:43:28;;;;;;;16.80;9.93;;;12.20;66.70;;;;;;5046182;28;20205;-86
2021/10/17 03:45:54;;;;;;;16.73;9.60;;;12.10;66.60;;;;;;5054757;28;20208;-86
2021/10/17 03:48:20;;;;;;;13.80;9.40;;;12.20;66.40;;;;;;5054643;28;20205;-86
2021/10/17 03:50:46;;;;;;;10.87;8.50;;;12.00;66.60;;;;;;5035135;28;20182;-86
2021/10/17 03:53:11;;;;;;;18.13;8.57;;;11.90;66.90;;;;;;5044372;28;20201;-87
2021/10/17 03:55:37;;;;;;;13.97;7.93;;;12.00;67.10;;;;;;5038739;28;20216;-86
2021/10/17 03:58:04;;;;;;;16.70;9.53;;;12.10;67.10;;;;;;5054102;28;20188;-85
2021/10/17 04:00:30;;;;;;;17.58;9.00;;;12.10;67.00;;;;;;5051167;28;20428;-86
2021/10/17 04:02:56;;;;;;;16.48;9.93;;;12.00;66.80;;;;;;5035544;28;20265;-86
2021/10/17 04:05:22;;;;;;;14.00;7.53;;;12.10;67.10;;;;;;5043825;28;20224;-85
2021/10/17 04:07:47;;;;;;;20.13;8.67;;;12.20;67.00;;;;;;5054771;28;20287;-85
2021/10/17 04:10:14;;;;;;;15.50;8.53;;;12.20;66.80;;;;;;5051499;28;20178;-85
2021/10/17 04:12:40;;;;;;;20.85;9.27;;;12.20;66.80;;;;;;5053916;28;20431;-85
2021/10/17 04:15:07;;;;;;;15.32;8.10;;;12.10;66.90;;;;;;5053930;28;20289;-86
2021/10/17 04:17:33;;;;;;;16.55;8.75;;;12.00;67.20;;;;;;5054343;28;20683;-85
2021/10/17 04:19:59;;;;;;;17.40;7.57;;;12.00;67.10;;;;;;5051069;28;20190;-86
2021/10/17 04:22:25;;;;;;;15.93;8.27;;;12.00;67.30;;;;;;5051854;28;20914;-86
2021/10/17 04:24:51;;;;;;;15.27;8.50;;;11.90;67.60;;;;;;5050560;28;20205;-86
2021/10/17 04:27:17;;;;;;;14.10;8.87;;;12.00;67.70;;;;;;5042148;28;20573;-86
2021/10/17 04:29:43;;;;;;;16.00;8.23;;;12.00;67.30;;;;;;5050934;28;20424;-85
2021/10/17 04:32:09;;;;;;;18.02;8.57;;;12.00;67.50;;;;;;5034738;28;20417;-84
2021/10/17 04:34:36;;;;;;;19.45;8.27;;;11.90;67.70;;;;;;5043853;28;20201;-85
2021/10/17 04:37:02;;;;;;;17.08;8.93;;;11.80;67.90;;;;;;5054587;28;20181;-85
2021/10/17 04:39:28;;;;;;;14.52;8.45;;;12.00;67.80;;;;;;5068770;28;20207;-85
2021/10/17 04:41:54;;;;;;;14.00;8.20;;;11.90;67.60;;;;;;5037602;28;20253;-85
2021/10/17 04:44:20;;;;;;;16.77;8.50;;;11.90;67.70;;;;;;5034933;28;20194;-85
2021/10/17 04:46:46;;;;;;;17.43;8.93;;;11.90;67.80;;;;;;5048927;28;20432;-85
2021/10/17 04:49:12;;;;;;;15.90;8.32;;;11.90;67.90;;;;;;5047003;28;21005;-85
2021/10/17 04:51:38;;;;;;;14.80;7.90;;;11.90;68.10;;;;;;5048059;28;20189;-85
2021/10/17 04:54:04;;;;;;;18.90;8.83;;;11.90;68.00;;;;;;5047799;28;20228;-85
2021/10/17 04:56:29;;;;;;;18.20;8.83;;;11.90;68.10;;;;;;5056924;28;20177;-86
2021/10/17 04:58:55;;;;;;;14.60;8.70;;;12.00;68.30;;;;;;5048663;28;20629;-87
2021/10/17 05:01:21;;;;;;;13.27;8.73;;;12.00;68.10;;;;;;5056696;28;20560;-86
2021/10/17 05:03:47;;;;;;;17.33;8.73;;;11.90;68.10;;;;;;5057173;28;20205;-87
2021/10/17 05:06:12;;;;;;;18.03;8.60;;;11.90;68.20;;;;;;5047073;28;20180;-86
2021/10/17 05:08:38;;;;;;;18.03;9.30;;;12.00;68.00;;;;;;5061461;28;20800;-87
2021/10/17 05:11:04;;;;;;;14.55;8.15;;;12.00;68.10;;;;;;5031067;28;20643;-86
2021/10/17 05:13:30;;;;;;;19.43;11.67;;;12.00;68.20;;;;;;5030813;28;20205;-87
2021/10/17 05:15:56;;;;;;;24.53;9.23;;;11.90;68.30;;;;;;5018660;28;20189;-87
2021/10/17 05:18:22;;;;;;;12.93;7.88;;;11.80;68.40;;;;;;5021936;28;20429;-86
2021/10/17 05:20:48;;;;;;;14.85;8.50;;;11.90;68.70;;;;;;5021288;28;20186;-85
2021/10/17 05:23:15;;;;;;;17.23;9.40;;;12.00;68.60;;;;;;5035042;28;21089;-86
2021/10/17 05:25:42;;;;;;;15.60;9.65;;;12.20;68.00;;;;;;5044130;28;20491;-85
2021/10/17 05:28:08;;;;;;;24.55;9.02;;;12.20;67.40;;;;;;5037782;28;20659;-85
2021/10/17 05:30:35;;;;;;;23.83;7.90;;;12.10;67.30;;;;;;5037153;28;20204;-86
2021/10/17 05:33:02;;;;;;;10.75;7.65;;;12.10;67.30;;;;;;5035599;28;20679;-86
2021/10/17 05:35:29;;;;;;;13.95;8.88;;;12.20;67.40;;;;;;5030534;28;20181;-85
2021/10/17 05:37:54;;;;;;;19.60;8.85;;;12.20;67.40;;;;;;5046094;28;20207;-84
2021/10/17 05:40:21;;;;;;;9.73;6.60;;;12.30;67.10;;;;;;5038414;28;20185;-84
2021/10/17 05:42:47;;;;;;;21.25;7.97;;;12.30;67.00;;;;;;5038336;28;20177;-85
2021/10/17 05:45:12;;;;;;;10.07;6.88;;;12.20;67.10;;;;;;5044049;28;20202;-84
2021/10/17 05:47:39;;;;;;;17.40;8.50;;;12.20;67.10;;;;;;5027342;28;20202;-84
2021/10/17 05:50:06;;;;;;;13.35;8.23;;;12.20;66.80;;;;;;5022225;28;20170;-85
2021/10/17 05:52:31;;;;;;;18.60;8.88;;;12.20;66.90;;;;;;5052974;28;20177;-86
2021/10/17 05:54:57;;;;;;;18.87;7.67;;;12.10;67.30;;;;;;5036667;28;20200;-86
2021/10/17 05:57:23;;;;;;;14.90;7.97;;;12.20;67.40;;;;;;5036924;28;20192;-87
2021/10/17 05:59:48;;;;;;;20.43;8.10;;;12.30;67.60;;;;;;5037270;28;20524;-86
2021/10/17 06:02:17;;;;;;;15.70;8.00;;;12.20;67.80;;;;;;5048926;28;20174;-86
2021/10/17 06:04:43;;;;;;;12.48;8.35;;;12.20;67.90;;;;;;5046945;28;20212;-86
2021/10/17 06:07:09;;;;;;;14.10;8.73;;;12.10;68.10;;;;;;5057097;28;20177;-86
2021/10/17 06:09:36;;;;;;;11.77;7.90;;;12.10;68.50;;;;;;5060341;28;20798;-85
2021/10/17 06:12:03;;;;;;;12.75;8.32;;;12.10;68.90;;;;;;5055433;28;20185;-85
2021/10/17 06:14:28;;;;;;;12.27;8.00;;;12.10;69.00;;;;;;5044836;28;20202;-86
2021/10/17 06:16:54;;;;;;;18.43;8.63;;;12.00;69.10;;;;;;5060579;28;20266;-86
2021/10/17 06:19:19;;;;;;;16.50;8.73;;;11.80;69.30;;;;;;5057161;28;20197;-85
2021/10/17 06:21:45;;;;;;;13.13;7.93;;;11.80;69.80;;;;;;5047361;28;20180;-86
2021/10/17 06:24:11;;;;;;;12.37;8.50;;;12.00;69.90;;;;;;5064467;28;20201;-87
2021/10/17 06:26:37;;;;;;;20.13;9.07;;;12.10;69.60;;;;;;5059721;28;20185;-86
2021/10/17 06:29:02;;;;;;;13.80;8.30;;;12.10;69.40;;;;;;5060127;28;20449;-87
2021/10/17 06:31:28;;;;;;;14.90;7.33;;;12.20;69.30;;;;;;5053077;28;20181;-88
2021/10/17 06:33:54;;;;;;;18.50;9.60;;;12.10;69.40;;;;;;5059106;28;20440;-88
2021/10/17 06:36:20;;;;;;;12.50;8.00;;;12.10;69.40;;;;;;5047515;28;20177;-88
2021/10/17 06:38:45;;;;;;;17.73;7.27;;;12.20;69.20;;;;;;5060230;28;20709;-88
2021/10/17 06:41:11;;;;;;;15.70;7.67;;;12.20;69.30;;;;;;5049509;28;20182;-84
2021/10/17 06:43:37;;;;;;;15.27;8.27;;;12.10;69.40;;;;;;5051500;28;20690;-86
2021/10/17 06:46:03;;;;;;;11.03;7.80;;;12.20;69.30;;;;;;5040150;28;20231;-85
2021/10/17 06:48:28;;;;;;;22.23;8.63;;;12.20;69.50;;;;;;5053801;28;20452;-85
2021/10/17 06:50:54;;;;;;;13.93;7.50;;;12.20;69.60;;;;;;5050035;28;20238;-84
2021/10/17 06:53:20;;;;;;;15.63;8.47;;;12.10;69.70;;;;;;5040242;28;20444;-84
2021/10/17 06:55:46;;;;;;;11.70;8.80;;;12.10;69.90;;;;;;5062904;28;20213;-83
2021/10/17 06:58:11;;;;;;;16.57;8.40;;;12.10;70.00;;;;;;5048456;28;20178;-85
2021/10/17 07:00:38;;;;;;;15.30;8.17;;;12.30;69.60;;;;;;5057241;28;20181;-85
2021/10/17 07:03:04;;;;;;;14.27;7.22;;;12.40;69.20;;;;;;5055756;28;20181;-86
2021/10/17 07:05:29;;;;;;;12.63;7.32;;;12.40;69.20;;;;;;5065938;28;20196;-86
2021/10/17 07:07:55;;;;;;;16.67;7.37;;;12.50;69.20;;;;;;5048049;28;20206;-83
2021/10/17 07:10:21;;;;;;;20.23;9.07;;;12.50;69.00;;;;;;5059426;28;20212;-84
2021/10/17 07:12:46;;;;;;;20.47;8.40;;;12.50;68.50;;;;;;5058389;28;20188;-84
2021/10/17 07:15:12;;;;;;;16.57;7.87;;;12.70;68.60;;;;;;5056241;28;20198;-85
2021/10/17 07:17:37;;;;;;;13.63;6.90;;;12.80;67.90;;;;;;5054499;28;20270;-84
2021/10/17 07:20:04;;;;;;;19.13;8.40;;;12.90;67.90;;;;;;5055432;28;20193;-84
2021/10/17 07:22:30;;;;;;;17.48;8.07;;;12.90;67.90;;;;;;5053433;28;20628;-83
2021/10/17 07:24:56;;;;;;;19.33;8.50;;;13.00;67.60;;;;;;5049979;28;20280;-83
2021/10/17 07:27:22;;;;;;;13.73;8.97;;;13.00;67.10;;;;;;5055086;28;20212;-83
2021/10/17 07:29:47;;;;;;;13.80;7.87;;;13.10;67.10;;;;;;5056912;28;20181;-82
2021/10/17 07:32:14;;;;;;;14.97;8.90;;;13.10;66.40;;;;;;5059348;28;20535;-84
2021/10/17 07:34:40;;;;;;;20.35;9.25;;;13.00;66.20;;;;;;5054817;28;20236;-83
2021/10/17 07:37:05;;;;;;;16.00;9.00;;;13.00;66.40;;;;;;5040215;28;20182;-84
2021/10/17 07:39:31;;;;;;;16.43;7.90;;;13.20;66.40;;;;;;5049219;28;20181;-84
2021/10/17 07:41:58;;;;;;;16.30;7.70;;;13.20;66.20;;;;;;5048689;28;20190;-84
2021/10/17 07:44:25;;;;;;;13.75;8.07;;;13.20;65.90;;;;;;5061215;28;20453;-87
2021/10/17 07:46:51;;;;;;;12.13;7.75;;;13.30;65.60;;;;;;5063027;28;20180;-86
2021/10/17 07:49:16;;;;;;;20.92;8.85;;;13.40;65.20;;;;;;5048385;28;20672;-87
2021/10/17 07:51:42;;;;;;;15.63;9.20;;;13.50;64.90;;;;;;5037466;28;20189;-88
2021/10/17 07:54:08;;;;;;;12.60;7.53;;;13.40;65.00;;;;;;5031020;28;20259;-84
2021/10/17 07:56:34;;;;;;;15.88;8.55;;;13.50;64.70;;;;;;5055121;28;20189;-83
2021/10/17 07:59:00;;;;;;;15.13;8.88;;;13.50;64.60;;;;;;5052649;28;20194;-85
2021/10/17 08:01:26;;;;;;;14.23;8.70;;;13.60;64.60;;;;;;5049672;28;20529;-84
2021/10/17 08:03:51;;;;;;;14.47;9.20;;;13.70;64.50;;;;;;5048408;28;20204;-85
2021/10/17 08:06:17;;;;;;;13.90;8.23;;;13.90;64.40;;;;;;5034176;28;20181;-84
2021/10/17 08:08:43;;;;;;;12.60;8.30;;;13.80;62.80;;;;;;5030683;28;20661;-87
2021/10/17 08:11:08;;;;;;;14.43;8.67;;;13.90;62.50;;;;;;5045197;28;20182;-87
2021/10/17 08:13:34;;;;;;;18.83;9.30;;;14.00;62.00;;;;;;5028788;28;20233;-86
2021/10/17 08:16:00;;;;;;;10.50;9.10;;;13.90;61.50;;;;;;5028782;28;20182;-85
2021/10/17 08:18:26;;;;;;;16.17;9.77;;;14.00;61.50;;;;;;5019879;28;20235;-87
2021/10/17 08:20:53;;;;;;;17.98;8.48;;;14.10;61.80;;;;;;5037173;28;20466;-85
2021/10/17 08:23:19;;;;;;;17.23;8.85;;;14.30;60.90;;;;;;5035724;28;20206;-86
2021/10/17 08:25:46;;;;;;;16.93;8.97;;;14.40;60.80;;;;;;5040769;28;20220;-86
2021/10/17 08:28:15;;;;;;;18.88;10.38;;;14.50;60.40;;;;;;5036909;28;20456;-82
2021/10/17 08:30:44;;;;;;;14.20;9.45;;;14.60;59.50;;;;;;5036402;28;20182;-84
2021/10/17 08:33:10;;;;;;;16.50;8.68;;;14.50;59.50;;;;;;5058083;28;20209;-85
2021/10/17 08:35:36;;;;;;;20.30;10.27;;;14.60;59.60;;;;;;5046229;28;20217;-85
2021/10/17 08:38:02;;;;;;;18.53;9.00;;;14.50;59.20;;;;;;5045815;28;20455;-84
2021/10/17 08:40:27;;;;;;;22.13;9.77;;;14.50;59.40;;;;;;5041418;28;20656;-85
2021/10/17 08:42:53;;;;;;;17.03;9.50;;;14.50;59.40;;;;;;5041646;28;20245;-85
2021/10/17 08:45:19;;;;;;;21.13;10.50;;;14.40;59.50;;;;;;5051900;28;20181;-84
2021/10/17 08:47:47;;;;;;;20.30;10.77;;;14.40;59.80;;;;;;5039867;28;20212;-83
2021/10/17 08:50:16;;;;;;;22.05;10.30;;;14.40;59.80;;;;;;5035807;28;20174;-85
2021/10/17 08:52:43;;;;;;;20.98;11.35;;;14.60;59.40;;;;;;5043163;28;20276;-84
2021/10/17 08:55:12;;;;;;;19.20;9.95;;;14.70;59.40;;;;;;5024234;28;20248;-85
2021/10/17 08:57:38;;;;;;;20.00;11.75;;;14.80;58.80;;;;;;5050587;28;20197;-84
2021/10/17 09:00:24;;;;;;;23.98;10.20;;;14.80;58.50;;;;;;5033174;28;20209;-85
2021/10/17 09:02:51;;;;;;;16.40;9.10;;;14.90;58.50;;;;;;5048648;28;20261;-85
2021/10/17 09:05:16;;;;;;;17.75;8.73;;;14.90;58.60;;;;;;5033838;28;20194;-85
2021/10/17 09:07:52;;;;;;;18.10;8.40;;;15.10;58.80;;;;;;5064993;28;20200;-84
2021/10/17 09:10:18;;;;;;;13.65;7.88;;;15.20;57.70;;;;;;5077433;28;20174;-85
2021/10/17 09:12:46;;;;;;;15.43;7.68;;;15.30;57.80;;;;;;5053135;28;20253;-85
2021/10/17 09:15:18;;;;;;;16.65;7.70;;;15.50;57.30;;;;;;5071711;28;20197;-84
2021/10/17 09:18:04;;;;;;;12.55;6.53;;;15.60;56.80;;;;;;5054442;28;20174;-85
2021/10/17 09:20:29;;;;;;;15.27;8.20;;;15.50;55.60;;;;;;5053861;28;20181;-85
2021/10/17 09:23:00;;;;;;;12.03;6.20;;;15.30;55.70;;;;;;5043848;28;20674;-85
2021/10/17 09:25:44;;;;;;;17.27;8.00;;;15.20;55.80;;;;;;5048208;28;20777;-85
2021/10/17 09:28:21;;;;;;;16.42;7.45;;;15.20;55.80;;;;;;5069539;28;20276;-85
2021/10/17 09:31:02;;;;;;;13.10;8.00;;;15.50;56.00;;;;;;5057499;28;20204;-85
2021/10/17 09:33:28;;;;;;;14.73;7.05;;;15.70;55.40;;;;;;5057178;28;20194;-84
2021/10/17 09:35:54;;;;;;;10.73;7.07;;;15.80;55.50;;;;;;5048803;28;20264;-83
2021/10/17 09:38:33;;;;;;;17.80;7.25;;;15.90;54.80;;;;;;5062776;28;20436;-83
2021/10/17 09:41:35;;;;;;;20.00;7.30;;;15.90;54.20;;;;;;5067565;28;20193;-84
2021/10/17 09:44:03;;;;;;;11.48;7.28;;;15.70;54.10;;;;;;5072178;28;20197;-84
2021/10/17 09:46:29;;;;;;;13.02;7.47;;;15.60;54.70;;;;;;5060555;28;20197;-84
2021/10/17 09:48:56;;;;;;;17.02;8.48;;;15.50;55.00;;;;;;5066036;28;20215;-84
2021/10/17 09:51:25;;;;;;;14.35;7.13;;;15.70;55.10;;;;;;5067993;28;20205;-84
2021/10/17 09:53:56;;;;;;;13.43;7.38;;;15.60;54.30;;;;;;5047886;28;20190;-84
2021/10/17 09:56:43;;;;;;;9.68;6.78;;;15.60;54.80;;;;;;5062780;28;20276;-84
2021/10/17 09:59:13;;;;;;;16.52;8.13;;;15.50;55.00;;;;;;5054955;28;20185;-84
2021/10/17 10:01:41;;;;;;;15.38;8.02;;;15.40;55.10;;;;;;5049746;28;20182;-84
2021/10/17 10:04:09;;;;;;;16.13;7.50;;;15.20;55.80;;;;;;5065201;28;20205;-85
2021/10/17 10:06:35;;;;;;;17.55;8.52;;;15.40;55.80;;;;;;5067970;28;20177;-84
2021/10/17 10:09:11;;;;;;;13.50;7.25;;;15.30;56.00;;;;;;5052511;28;20746;-84
2021/10/17 10:11:38;;;;;;;16.15;7.15;;;15.50;56.00;;;;;;5051071;28;20182;-86
2021/10/17 10:14:06;;;;;;;14.27;6.40;;;15.70;55.40;;;;;;5059396;28;20288;-84
2021/10/17 10:16:33;;;;;;;19.33;8.48;;;15.90;54.80;;;;;;5060068;28;20188;-84
2021/10/17 10:19:07;;;;;;;9.32;5.85;;;16.10;54.40;;;;;;5058860;28;20208;-84
2021/10/17 10:21:35;;;;;;;11.85;6.50;;;16.20;54.60;;;;;;5060306;28;20180;-84
2021/10/17 10:24:10;;;;;;;9.18;5.90;;;16.40;54.60;;;;;;5042584;28;20202;-84
2021/10/17 10:26:39;;;;;;;9.50;5.97;;;16.70;53.60;;;;;;5061209;28;20185;-85
2021/10/17 10:29:05;;;;;;;16.02;6.97;;;16.70;52.50;;;;;;5057355;28;20250;-84
2021/10/17 10:31:44;;;;;;;11.27;6.47;;;16.60;52.60;;;;;;5046465;28;20177;-84
2021/10/17 10:34:33;;;;;;;11.35;6.70;;;16.40;52.40;;;;;;5057236;28;20446;-85
2021/10/17 10:37:13;;;;;;;13.45;7.55;;;16.20;52.30;;;;;;5068969;28;20165;-84
2021/10/17 10:40:04;;;;;;;9.27;6.65;;;16.30;52.60;;;;;;5048861;28;20185;-84
2021/10/17 10:42:34;;;;;;;11.02;6.70;;;16.40;52.20;;;;;;5055055;28;20185;-85
2021/10/17 10:45:29;;;;;;;13.23;6.72;;;16.60;52.10;;;;;;5056654;28;20270;-84
2021/10/17 10:48:23;;;;;;;9.30;7.30;;;16.80;51.40;;;;;;5064440;28;20205;-85
2021/10/17 10:50:54;;;;;;;15.63;6.05;;;16.40;50.50;;;;;;5063882;28;20188;-84
2021/10/17 10:53:46;;;;;;;11.77;6.28;;;16.20;51.10;;;;;;5053318;28;20201;-85
2021/10/17 10:56:41;;;;;;;11.25;5.63;;;16.30;51.50;;;;;;5052526;28;20212;-84
2021/10/17 10:59:08;;;;;;;9.98;6.65;;;16.60;51.30;;;;;;5054162;28;20188;-85
2021/10/17 11:01:57;;;;;;;15.02;6.55;;;16.80;50.70;;;;;;5066590;28;20200;-84
2021/10/17 11:04:37;;;;;;;12.32;6.72;;;17.00;50.50;;;;;;5042266;28;20225;-85
2021/10/17 11:07:35;;;;;;;8.70;6.30;;;17.10;50.30;;;;;;5049033;28;20182;-84
2021/10/17 11:10:25;;;;;;;8.90;5.60;;;17.10;49.70;;;;;;5064052;28;20189;-85
2021/10/17 11:13:02;;;;;;;10.88;6.30;;;17.30;49.90;;;;;;5059242;28;20196;-85
2021/10/17 11:15:32;;;;;;;11.15;5.60;;;17.40;49.40;;;;;;5068445;28;20860;-85
2021/10/17 11:18:08;;;;;;;9.98;5.80;;;17.00;48.10;;;;;;5044786;28;20177;-85
2021/10/17 11:20:48;;;;;;;8.63;4.85;;;16.70;48.50;;;;;;5052862;28;20184;-84
2021/10/17 11:23:21;;;;;;;12.73;5.60;;;16.70;49.40;;;;;;5061305;28;20196;-85
2021/10/17 11:26:11;;;;;;;10.82;5.72;;;16.70;49.50;;;;;;5053379;28;20189;-86
2021/10/17 11:28:46;;;;;;;12.07;5.25;;;16.90;49.70;;;;;;5054127;28;20205;-85
2021/10/17 11:31:19;;;;;;;19.75;6.07;;;17.00;49.90;;;;;;5041339;28;20165;-85
2021/10/17 11:33:46;;;;;;;9.07;4.78;;;17.10;50.20;;;;;;5058635;28;20279;-85
2021/10/17 11:36:15;;;;;;;12.63;6.40;;;17.30;49.80;;;;;;5059028;28;20196;-85
2021/10/17 11:38:42;;;;;;;14.55;6.22;;;17.50;48.70;;;;;;5055322;28;20182;-85
2021/10/17 11:41:13;;;;;;;6.32;5.57;;;17.50;48.90;;;;;;5051569;28;20219;-86
2021/10/17 11:43:47;;;;;;;6.13;4.90;;;17.60;49.70;;;;;;5055773;28;20684;-86
2021/10/17 11:46:15;;;;;;;12.85;5.68;;;17.60;49.90;;;;;;5038892;28;20215;-86
2021/10/17 11:48:42;;;;;;;9.00;6.10;;;17.70;50.10;;;;;;5037869;28;20197;-86
2021/10/17 11:51:11;;;;;;;10.43;5.07;;;17.80;49.90;;;;;;5057232;28;20547;-86
2021/10/17 11:53:37;;;;;;;12.30;5.80;;;17.80;49.70;;;;;;5046766;28;20681;-86
2021/10/17 11:56:08;;;;;;;13.40;4.80;;;18.00;48.70;;;;;;5049302;28;20188;-84
2021/10/17 11:58:35;;;;;;;14.15;4.57;;;18.00;48.20;;;;;;5060581;28;20450;-84
2021/10/17 12:01:11;;;;;;;7.18;4.80;;;18.00;48.50;;;;;;5058521;28;20196;-84
2021/10/17 12:03:40;;;;;;;9.05;5.53;;;18.10;48.90;;;;;;5058505;28;20196;-84
2021/10/17 12:06:13;;;;;;;9.05;6.30;;;18.00;47.00;;;;;;5040772;28;20178;-86
2021/10/17 12:08:39;;;;;;;8.25;4.70;;;18.00;46.50;;;;;;5041934;28;20672;-86
2021/10/17 12:11:06;;;;;;;14.20;4.90;;;18.10;46.60;;;;;;5040485;28;20199;-83
2021/10/17 12:13:43;;;;;;;11.85;5.05;;;18.10;46.50;;;;;;5042673;28;20192;-85
2021/10/17 12:16:12;;;;;;;10.63;6.00;;;18.10;47.30;;;;;;5038168;28;20181;-86
2021/10/17 12:18:47;;;;;;;7.85;4.30;;;18.10;46.20;;;;;;5020014;28;20188;-86
2021/10/17 12:21:16;;;;;;;17.58;5.43;;;18.10;46.10;;;;;;5037477;28;20178;-86
2021/10/17 12:23:44;;;;;;;8.68;4.10;;;18.20;46.90;;;;;;5009365;28;20197;-86
2021/10/17 12:26:18;;;;;;;12.45;4.57;;;18.20;47.00;;;;;;5036964;28;20181;-86
2021/10/17 12:28:43;;;;;;;7.18;4.28;;;18.00;45.30;;;;;;5020663;28;20202;-86
2021/10/17 12:31:10;;;;;;;12.10;4.50;;;18.10;45.70;;;;;;5037499;28;20183;-85
2021/10/17 12:33:37;;;;;;;10.50;5.00;;;18.10;46.20;;;;;;5036274;28;20240;-85
2021/10/17 12:36:05;;;;;;;6.30;4.32;;;18.10;45.40;;;;;;5027701;28;20181;-86
2021/10/17 12:38:34;;;;;;;8.32;5.45;;;18.00;44.70;;;;;;5042950;28;20181;-86
2021/10/17 12:41:05;;;;;;;11.32;4.75;;;17.70;44.40;;;;;;5027879;28;20185;-86